createdAt,value
2023-01-05T00:00:35.624Z,30.70
2023-01-05T00:03:05.538Z,22.37
2023-01-05T00:05:37.789Z,19.70
2023-01-05T00:08:08.090Z,26.67
2023-01-05T00:10:52.001Z,29.97
2023-01-05T00:13:34.176Z,26.73
2023-01-05T00:16:16.389Z,29.50
2023-01-05T00:18:58.617Z,22.43
2023-01-05T00:21:55.036Z,18.13
2023-01-05T00:24:24.690Z,15.60
2023-01-05T00:26:54.392Z,27.93
2023-01-05T00:29:24.372Z,23.17
2023-01-05T00:31:54.037Z,23.17
2023-01-05T00:34:24.849Z,22.60
2023-01-05T00:36:57.145Z,21.03
2023-01-05T00:39:27.130Z,23.17
2023-01-05T00:41:56.847Z,30.67
2023-01-05T00:44:26.486Z,24.27
2023-01-05T00:46:57.008Z,22.97
2023-01-05T00:49:27.126Z,23.13
2023-01-05T00:51:59.366Z,30.43
2023-01-05T00:54:29.361Z,24.93
2023-01-05T00:56:59.136Z,28.97
2023-01-05T00:59:29.193Z,27.47
2023-01-05T01:01:59.055Z,27.03
2023-01-05T01:04:28.789Z,25.50
2023-01-05T01:07:01.169Z,30.00
2023-01-05T01:09:31.276Z,28.07
2023-01-05T01:12:01.000Z,23.00
2023-01-05T01:14:30.802Z,35.23
2023-01-05T01:17:00.784Z,35.03
2023-01-05T01:19:31.038Z,30.53
2023-01-05T01:22:04.230Z,22.37
2023-01-05T01:24:33.901Z,28.93
2023-01-05T01:27:03.711Z,30.27
2023-01-05T01:29:33.673Z,31.27
2023-01-05T01:32:03.397Z,30.27
2023-01-05T01:34:33.779Z,25.23
2023-01-05T01:37:06.157Z,30.20
2023-01-05T01:39:41.533Z,24.13
2023-01-05T01:42:16.944Z,31.63
2023-01-05T01:44:56.896Z,18.90
2023-01-05T01:47:39.454Z,22.03
2023-01-05T01:50:17.202Z,21.73
2023-01-05T01:52:52.830Z,22.10
2023-01-05T01:55:23.545Z,22.43
2023-01-05T01:57:54.836Z,29.33
2023-01-05T02:00:24.590Z,21.60
2023-01-05T02:02:57.438Z,30.40
2023-01-05T02:05:30.994Z,20.80
2023-01-05T02:08:03.286Z,19.87
2023-01-05T02:10:45.576Z,20.80
2023-01-05T02:13:31.589Z,24.53
2023-01-05T02:16:09.888Z,27.43
2023-01-05T02:18:56.217Z,21.67
2023-01-05T02:21:35.387Z,21.00
2023-01-05T02:24:37.039Z,19.03
2023-01-05T02:27:37.380Z,25.37
2023-01-05T02:30:37.381Z,24.03
2023-01-05T02:33:19.776Z,19.33
2023-01-05T02:36:06.338Z,28.43
2023-01-05T02:38:41.523Z,21.67
2023-01-05T02:41:16.583Z,21.73
2023-01-05T02:43:47.953Z,25.67
2023-01-05T02:46:17.614Z,28.43
2023-01-05T02:48:54.268Z,28.63
2023-01-05T02:51:29.160Z,27.57
2023-01-05T02:54:04.148Z,37.17
2023-01-05T02:56:38.903Z,29.17
2023-01-05T02:59:15.860Z,33.37
2023-01-05T03:01:50.062Z,29.70
2023-01-05T03:04:27.704Z,20.03
2023-01-05T03:06:59.582Z,32.20
2023-01-05T03:09:37.555Z,27.60
2023-01-05T03:12:31.148Z,35.20
2023-01-05T03:15:06.546Z,25.70
2023-01-05T03:17:44.352Z,25.97
2023-01-05T03:20:19.322Z,27.73
2023-01-05T03:23:04.262Z,24.40
2023-01-05T03:25:49.685Z,42.73
2023-01-05T03:28:35.463Z,34.13
2023-01-05T03:31:24.831Z,32.47
2023-01-05T03:34:12.902Z,29.33
2023-01-05T03:36:51.987Z,37.80
2023-01-05T03:39:26.692Z,26.47
2023-01-05T03:41:58.668Z,24.90
2023-01-05T03:44:28.726Z,34.50
2023-01-05T03:46:59.351Z,29.03
2023-01-05T03:49:29.101Z,29.20
2023-01-05T03:52:01.452Z,33.30
2023-01-05T03:54:31.861Z,22.13
2023-01-05T03:57:01.515Z,27.00
2023-01-05T03:59:31.643Z,24.93
2023-01-05T04:02:02.773Z,18.90
2023-01-05T04:04:32.545Z,27.70
2023-01-05T04:07:07.438Z,28.70
2023-01-05T04:09:37.981Z,24.50
2023-01-05T04:12:08.471Z,30.37
2023-01-05T04:14:42.805Z,23.07
2023-01-05T04:17:12.606Z,25.27
2023-01-05T04:19:42.875Z,34.07
2023-01-05T04:22:16.034Z,36.63
2023-01-05T04:24:46.858Z,26.37
2023-01-05T04:27:16.616Z,29.90
2023-01-05T04:29:46.252Z,34.57
2023-01-05T04:32:16.480Z,30.67
2023-01-05T04:34:47.165Z,32.57
2023-01-05T04:37:19.505Z,25.90
2023-01-05T04:39:49.583Z,28.13
2023-01-05T04:42:19.825Z,15.70
2023-01-05T04:44:55.532Z,30.20
2023-01-05T04:47:25.337Z,22.13
2023-01-05T04:49:55.019Z,24.37
2023-01-05T04:52:27.825Z,23.73
2023-01-05T04:54:57.759Z,28.10
2023-01-05T04:57:29.453Z,23.53
2023-01-05T05:00:00.886Z,18.23
2023-01-05T05:02:33.650Z,20.43
2023-01-05T05:05:03.668Z,29.30
2023-01-05T05:07:36.143Z,29.43
2023-01-05T05:10:08.058Z,24.43
2023-01-05T05:12:38.198Z,26.80
2023-01-05T05:15:10.075Z,28.33
2023-01-05T05:17:44.116Z,28.73
2023-01-05T05:20:19.058Z,27.50
2023-01-05T05:22:51.347Z,22.37
2023-01-05T05:25:23.399Z,21.10
2023-01-05T05:27:53.657Z,21.63
2023-01-05T05:30:23.345Z,28.13
2023-01-05T05:32:52.971Z,25.47
2023-01-05T05:35:22.753Z,17.73
2023-01-05T05:37:56.842Z,25.97
2023-01-05T05:40:26.767Z,35.83
2023-01-05T05:42:56.653Z,26.73
2023-01-05T05:45:26.290Z,28.63
2023-01-05T05:47:56.002Z,27.00
2023-01-05T05:50:25.710Z,28.00
2023-01-05T05:52:57.951Z,21.23
2023-01-05T05:55:27.669Z,28.23
2023-01-05T05:57:57.287Z,25.73
2023-01-05T06:00:26.946Z,24.97
2023-01-05T06:02:56.708Z,19.73
2023-01-05T06:05:26.528Z,31.03
2023-01-05T06:07:58.759Z,27.53
2023-01-05T06:10:28.858Z,21.73
2023-01-05T06:12:58.809Z,20.47
2023-01-05T06:15:28.486Z,24.93
2023-01-05T06:17:58.128Z,26.53
2023-01-05T06:20:27.773Z,22.50
2023-01-05T06:23:00.115Z,31.67
2023-01-05T06:25:29.771Z,31.20
2023-01-05T06:27:59.401Z,23.33
2023-01-05T06:30:29.097Z,21.30
2023-01-05T06:32:58.852Z,31.10
2023-01-05T06:35:28.594Z,24.50
2023-01-05T06:38:01.155Z,23.50
2023-01-05T06:40:30.850Z,22.73
2023-01-05T06:43:01.083Z,21.23
2023-01-05T06:45:30.832Z,39.43
2023-01-05T06:48:01.187Z,21.53
2023-01-05T06:50:32.993Z,31.07
2023-01-05T06:53:05.585Z,22.80
2023-01-05T06:55:35.253Z,19.10
2023-01-05T06:58:04.898Z,17.37
2023-01-05T07:00:34.698Z,31.20
2023-01-05T07:03:04.510Z,25.87
2023-01-05T07:05:34.261Z,26.93
2023-01-05T07:08:06.749Z,23.83
2023-01-05T07:10:36.407Z,27.33
2023-01-05T07:13:06.049Z,25.67
2023-01-05T07:15:35.742Z,38.50
2023-01-05T07:18:05.613Z,25.30
2023-01-05T07:20:35.278Z,23.03
2023-01-05T07:23:07.491Z,29.87
2023-01-05T07:25:37.165Z,20.20
2023-01-05T07:28:07.257Z,28.80
2023-01-05T07:30:36.901Z,23.07
2023-01-05T07:33:06.671Z,32.57
2023-01-05T07:35:36.350Z,28.70
2023-01-05T07:38:08.709Z,26.20
2023-01-05T07:40:38.643Z,26.27
2023-01-05T07:43:08.343Z,23.20
2023-01-05T07:45:38.053Z,25.93
2023-01-05T07:48:08.290Z,23.10
2023-01-05T07:50:38.276Z,23.73
2023-01-05T07:53:10.515Z,27.07
2023-01-05T07:55:40.159Z,32.73
2023-01-05T07:58:09.809Z,34.83
2023-01-05T08:00:39.410Z,29.03
2023-01-05T08:03:09.050Z,21.33
2023-01-05T08:05:38.673Z,29.27
2023-01-05T08:08:11.092Z,19.83
2023-01-05T08:10:42.271Z,22.43
2023-01-05T08:13:26.192Z,21.30
2023-01-05T08:15:57.418Z,25.37
2023-01-05T08:18:28.202Z,30.70
2023-01-05T08:20:59.655Z,20.67
2023-01-05T08:23:34.733Z,19.13
2023-01-05T08:26:08.291Z,30.50
2023-01-05T08:28:39.112Z,18.67
2023-01-05T08:31:16.637Z,22.63
2023-01-05T08:33:46.743Z,29.40
2023-01-05T08:36:19.779Z,22.93
2023-01-05T08:38:54.709Z,20.77
2023-01-05T08:41:30.188Z,33.40
2023-01-05T08:44:03.173Z,19.90
2023-01-05T08:46:35.368Z,23.47
2023-01-05T08:49:07.135Z,50.50
2023-01-05T08:51:38.074Z,44.43
2023-01-05T08:54:10.441Z,39.63
2023-01-05T08:56:40.164Z,25.67
2023-01-05T08:59:14.325Z,29.77
2023-01-05T09:01:44.230Z,32.33
2023-01-05T09:04:13.983Z,42.00
2023-01-05T09:06:44.097Z,28.27
2023-01-05T09:09:16.413Z,29.47
2023-01-05T09:11:48.147Z,22.93
2023-01-05T09:14:18.892Z,34.50
2023-01-05T09:17:06.354Z,31.13
2023-01-05T09:19:37.502Z,13.30
2023-01-05T09:22:07.362Z,29.40
2023-01-05T09:24:39.790Z,27.33
2023-01-05T09:27:09.571Z,36.07
2023-01-05T09:29:39.316Z,20.30
2023-01-05T09:32:11.556Z,25.83
2023-01-05T09:34:42.812Z,17.23
2023-01-05T09:37:13.698Z,19.27
2023-01-05T09:39:46.079Z,22.87
2023-01-05T09:42:19.577Z,24.93
2023-01-05T09:44:58.482Z,22.70
2023-01-05T09:47:35.161Z,25.53
2023-01-05T09:50:07.420Z,18.53
2023-01-05T09:52:39.267Z,20.47
2023-01-05T09:55:18.370Z,24.83
2023-01-05T09:57:55.059Z,30.80
2023-01-05T10:00:26.914Z,25.13
2023-01-05T10:03:01.664Z,20.93
2023-01-05T10:05:34.404Z,30.77
2023-01-05T10:08:18.846Z,31.60
2023-01-05T10:11:11.408Z,28.67
2023-01-05T10:13:48.336Z,31.47
2023-01-05T10:16:24.625Z,30.40
2023-01-05T10:18:57.624Z,29.33
2023-01-05T10:21:39.225Z,26.20
2023-01-05T10:24:29.536Z,25.10
2023-01-05T10:27:25.814Z,24.90
2023-01-05T10:30:12.157Z,22.30
2023-01-05T10:33:03.869Z,22.20
2023-01-05T10:36:05.268Z,20.90
2023-01-05T10:38:51.243Z,36.50
2023-01-05T10:41:29.881Z,18.87
2023-01-05T10:44:46.296Z,20.90
2023-01-05T10:47:16.902Z,19.87
2023-01-05T10:49:50.048Z,22.23
2023-01-05T10:52:22.816Z,23.90
2023-01-05T10:54:55.684Z,22.67
2023-01-05T10:57:43.093Z,23.90
2023-01-05T11:00:20.885Z,25.50
2023-01-05T11:02:54.424Z,19.80
2023-01-05T11:05:30.947Z,15.67
2023-01-05T11:08:04.756Z,23.63
2023-01-05T11:10:38.372Z,25.00
2023-01-05T11:13:10.301Z,19.63
2023-01-05T11:15:48.120Z,23.30
2023-01-05T11:18:28.823Z,20.33
2023-01-05T11:21:08.020Z,27.13
2023-01-05T11:23:40.158Z,46.40
2023-01-05T11:26:40.582Z,26.93
2023-01-05T11:29:17.469Z,21.30
2023-01-05T11:31:56.858Z,18.00
2023-01-05T11:34:36.168Z,22.50
2023-01-05T11:37:10.744Z,19.15
2023-01-05T11:39:50.303Z,21.97
2023-01-05T11:42:25.717Z,14.37
2023-01-05T11:44:59.853Z,20.83
2023-01-05T11:47:43.570Z,20.13
2023-01-05T11:50:25.189Z,15.03
2023-01-05T11:52:56.934Z,13.37
2023-01-05T11:55:36.080Z,21.83
2023-01-05T11:58:26.685Z,24.03
2023-01-05T12:01:26.320Z,44.00
2023-01-05T12:04:06.742Z,25.87
2023-01-05T12:06:59.174Z,13.37
2023-01-05T12:09:35.305Z,16.93
2023-01-05T12:12:27.614Z,18.57
2023-01-05T12:15:35.987Z,22.20
2023-01-05T12:18:21.254Z,18.07
2023-01-05T12:21:07.908Z,22.80
2023-01-05T12:24:07.142Z,14.77
2023-01-05T12:26:49.577Z,22.63
2023-01-05T12:36:13.348Z,11.27
2023-01-05T12:38:51.128Z,17.07
2023-01-05T12:41:43.180Z,35.10
2023-01-05T12:44:46.617Z,14.77
2023-01-05T12:47:42.675Z,11.80
2023-01-05T12:50:25.929Z,11.00
2023-01-05T12:53:03.184Z,14.47
2023-01-05T12:55:44.700Z,14.63
2023-01-05T12:58:20.307Z,14.33
2023-01-05T13:00:53.299Z,16.27
2023-01-05T13:03:30.695Z,32.77
2023-01-05T13:06:07.353Z,23.17
2023-01-05T13:08:47.264Z,15.33
2023-01-05T13:11:24.949Z,22.20
2023-01-05T13:13:58.957Z,22.27
2023-01-05T13:16:35.359Z,14.17
2023-01-05T13:19:09.360Z,17.70
2023-01-05T13:21:44.530Z,9.97
2023-01-05T13:24:23.193Z,18.63
2023-01-05T13:26:53.157Z,8.80
2023-01-05T13:29:27.241Z,12.13
2023-01-05T13:35:12.168Z,11.70
2023-01-05T13:38:23.755Z,8.07
2023-01-05T13:41:10.717Z,10.53
2023-01-05T13:44:14.233Z,11.27
2023-01-05T13:47:04.307Z,16.83
2023-01-05T13:50:11.545Z,9.80
2023-01-05T13:52:57.651Z,12.27
2023-01-05T13:55:29.052Z,18.27
2023-01-05T13:58:05.897Z,19.50
2023-01-05T14:00:43.089Z,14.30
2023-01-05T14:03:23.933Z,16.93
2023-01-05T14:05:58.310Z,19.87
2023-01-05T14:08:34.236Z,10.90
2023-01-05T14:11:13.566Z,11.60
2023-01-05T14:13:50.366Z,9.33
2023-01-05T14:16:51.899Z,10.13
2023-01-05T14:19:52.549Z,11.13
2023-01-05T14:22:36.568Z,11.57
2023-01-05T14:25:36.336Z,7.60
2023-01-05T14:28:37.035Z,13.53
2023-01-05T14:31:46.153Z,11.20
2023-01-05T14:34:23.254Z,21.70
2023-01-05T14:37:08.889Z,9.57
2023-01-05T14:39:45.067Z,15.33
2023-01-05T14:42:29.747Z,21.70
2023-01-05T14:45:04.049Z,18.07
2023-01-05T14:47:42.967Z,18.37
2023-01-05T14:50:35.118Z,18.13
2023-01-05T14:53:15.505Z,18.43
2023-01-05T14:56:18.711Z,18.80
2023-01-05T14:58:59.083Z,12.60
2023-01-05T15:04:16.749Z,41.87
2023-01-05T15:07:03.354Z,25.10
2023-01-05T15:09:46.520Z,17.90
2023-01-05T15:12:36.514Z,14.20
2023-01-05T15:15:50.240Z,11.47
2023-01-05T15:18:56.089Z,21.53
2023-01-05T15:21:51.209Z,20.73
2023-01-05T15:24:45.851Z,15.70
2023-01-05T15:27:42.936Z,18.40
2023-01-05T15:30:34.202Z,18.30
2023-01-05T15:33:15.167Z,18.70
2023-01-05T15:35:50.255Z,23.30
2023-01-05T15:38:25.472Z,17.97
2023-01-05T15:41:09.087Z,17.93
2023-01-05T15:43:41.653Z,12.27
2023-01-05T15:46:14.375Z,14.57
2023-01-05T15:48:48.919Z,13.90
2023-01-05T15:51:25.345Z,19.17
2023-01-05T15:54:00.337Z,9.20
2023-01-05T15:56:39.788Z,9.87
2023-01-05T15:59:25.280Z,19.07
2023-01-05T16:01:54.984Z,71.53
2023-01-05T16:04:25.903Z,30.43
2023-01-05T16:07:02.187Z,17.17
2023-01-05T16:09:35.580Z,9.00
2023-01-05T16:12:23.175Z,18.20
2023-01-05T16:14:57.856Z,18.90
2023-01-05T16:17:30.768Z,16.73
2023-01-05T16:20:07.819Z,15.57
2023-01-05T16:22:44.498Z,22.53
2023-01-05T16:25:19.059Z,30.60
2023-01-05T16:27:58.698Z,14.77
2023-01-05T16:30:35.450Z,16.70
2023-01-05T16:33:11.743Z,26.43
2023-01-05T16:35:44.961Z,26.90
2023-01-05T16:38:28.128Z,43.57
2023-01-05T16:41:08.650Z,45.00
2023-01-05T16:43:52.078Z,49.80
2023-01-05T16:46:36.056Z,56.23
2023-01-05T16:49:26.347Z,41.03
2023-01-05T16:51:57.458Z,40.30
2023-01-05T16:54:36.908Z,13.10
2023-01-05T16:57:30.036Z,17.90
2023-01-05T17:00:02.493Z,12.57
2023-01-05T17:02:49.026Z,9.47
2023-01-05T17:05:26.667Z,12.37
2023-01-05T17:08:07.098Z,8.87
2023-01-05T17:10:36.864Z,11.70
2023-01-05T17:13:10.680Z,9.20
2023-01-05T17:15:46.907Z,8.83
2023-01-05T17:18:31.364Z,13.80
2023-01-05T17:21:02.686Z,20.50
2023-01-05T17:23:36.496Z,15.53
2023-01-05T17:26:08.927Z,20.10
2023-01-05T17:28:42.180Z,18.53
2023-01-05T17:31:19.310Z,13.50
2023-01-05T17:33:50.160Z,15.27
2023-01-05T17:36:29.217Z,10.43
2023-01-05T17:39:00.986Z,15.37
2023-01-05T17:41:31.937Z,19.50
2023-01-05T17:44:02.721Z,19.20
2023-01-05T17:46:40.550Z,21.37
2023-01-05T17:49:17.043Z,16.17
2023-01-05T17:51:47.191Z,13.57
2023-01-05T17:54:17.468Z,18.17
2023-01-05T17:56:47.181Z,17.80
2023-01-05T17:59:16.897Z,19.27
2023-01-05T18:01:54.286Z,28.07
2023-01-05T18:04:25.454Z,22.50
2023-01-05T18:06:59.049Z,20.47
2023-01-05T18:09:28.710Z,29.23
2023-01-05T18:11:58.461Z,26.57
2023-01-05T18:14:28.430Z,26.83
2023-01-05T18:17:00.838Z,39.03
2023-01-05T18:19:32.572Z,32.53
2023-01-05T18:22:04.644Z,24.43
2023-01-05T18:24:34.394Z,31.57
2023-01-05T18:27:07.080Z,33.13
2023-01-05T18:29:36.992Z,26.27
2023-01-05T18:32:10.861Z,20.43
2023-01-05T18:34:40.921Z,26.00
2023-01-05T18:37:21.486Z,28.87
2023-01-05T18:39:57.508Z,40.30
2023-01-05T18:42:28.819Z,28.87
2023-01-05T18:45:09.178Z,35.73
2023-01-05T18:47:53.536Z,44.03
2023-01-05T18:50:27.160Z,39.63
2023-01-05T18:52:57.935Z,40.23
2023-01-05T18:55:27.629Z,37.93
2023-01-05T18:57:57.358Z,31.30
2023-01-05T19:00:27.078Z,47.57
2023-01-05T19:03:00.396Z,33.97
2023-01-05T19:05:30.167Z,32.23
2023-01-05T19:08:00.903Z,34.70
2023-01-05T19:10:33.157Z,39.13
2023-01-05T19:13:07.066Z,40.30
2023-01-05T19:15:37.327Z,36.97
2023-01-05T19:18:10.133Z,34.90
2023-01-05T19:20:39.905Z,39.20
2023-01-05T19:23:12.778Z,39.93
2023-01-05T19:25:43.075Z,37.90
2023-01-05T19:28:12.843Z,49.20
2023-01-05T19:30:42.699Z,41.30
2023-01-05T19:33:16.073Z,49.30
2023-01-05T19:35:46.742Z,43.47
2023-01-05T19:38:18.140Z,42.83
2023-01-05T19:40:51.806Z,48.00
2023-01-05T19:43:22.704Z,47.50
2023-01-05T19:45:52.513Z,51.07
2023-01-05T19:48:26.835Z,42.90
2023-01-05T19:51:02.962Z,31.00
2023-01-05T19:53:35.799Z,48.33
2023-01-05T19:56:06.444Z,51.53
2023-01-05T19:58:36.875Z,46.33
2023-01-05T20:01:10.103Z,36.73
2023-01-05T20:03:44.521Z,48.97
2023-01-05T20:06:18.354Z,40.00
2023-01-05T20:08:52.800Z,48.27
2023-01-05T20:11:39.544Z,45.03
2023-01-05T20:14:15.210Z,49.63
2023-01-05T20:16:49.798Z,45.53
2023-01-05T20:19:26.923Z,47.80
2023-01-05T20:22:00.617Z,49.77
2023-01-05T20:24:32.770Z,53.47
2023-01-05T20:27:04.874Z,60.10
2023-01-05T20:29:35.061Z,53.40
2023-01-05T20:32:09.241Z,48.50
2023-01-05T20:34:42.903Z,48.03
2023-01-05T20:37:14.289Z,46.40
2023-01-05T20:39:45.282Z,40.80
2023-01-05T20:42:15.348Z,42.37
2023-01-05T20:44:47.616Z,48.00
2023-01-05T20:47:17.890Z,42.67
2023-01-05T20:49:50.890Z,51.60
2023-01-05T20:52:23.868Z,51.67
2023-01-05T20:55:01.692Z,46.70
2023-01-05T20:57:31.421Z,49.70
2023-01-05T21:00:06.476Z,51.13
2023-01-05T21:02:36.248Z,44.63
2023-01-05T21:05:15.209Z,48.93
2023-01-05T21:07:45.102Z,41.83
2023-01-05T21:10:14.883Z,46.43
2023-01-05T21:12:44.550Z,39.03
2023-01-05T21:15:14.325Z,44.00
2023-01-05T21:17:43.994Z,50.10
2023-01-05T21:20:16.455Z,51.13
2023-01-05T21:22:46.964Z,47.80
2023-01-05T21:25:19.793Z,40.57
2023-01-05T21:27:49.453Z,47.23
2023-01-05T21:30:24.120Z,54.77
2023-01-05T21:32:54.860Z,42.23
2023-01-05T21:35:27.202Z,50.77
2023-01-05T21:37:57.007Z,57.10
2023-01-05T21:40:30.353Z,43.23
2023-01-05T21:43:02.210Z,55.37
2023-01-05T21:45:34.638Z,56.90
2023-01-05T21:48:05.381Z,51.43
2023-01-05T21:50:50.370Z,50.03
2023-01-05T21:53:33.615Z,50.00
2023-01-05T21:56:16.793Z,41.90
2023-01-05T21:58:47.960Z,44.07
2023-01-05T22:01:19.795Z,46.53
2023-01-05T22:03:49.816Z,55.83
2023-01-05T22:06:24.070Z,51.77
2023-01-05T22:08:53.927Z,44.17
2023-01-05T22:11:23.803Z,50.67
2023-01-05T22:13:55.550Z,41.80
2023-01-05T22:16:28.828Z,41.00
2023-01-05T22:18:58.529Z,39.17
2023-01-05T22:21:34.509Z,40.67
2023-01-05T22:24:04.411Z,47.13
2023-01-05T22:26:36.067Z,48.87
2023-01-05T22:29:05.847Z,38.80
2023-01-05T22:31:38.840Z,35.70
2023-01-05T22:34:11.517Z,45.23
2023-01-05T22:36:43.840Z,43.00
2023-01-05T22:39:18.228Z,38.47
2023-01-05T22:41:48.361Z,39.23
2023-01-05T22:44:20.693Z,38.07
2023-01-05T22:46:50.477Z,36.17
2023-01-05T22:49:23.741Z,33.73
2023-01-05T22:51:56.065Z,26.57
2023-01-05T22:54:25.871Z,29.33
2023-01-05T22:56:56.589Z,25.50
2023-01-05T22:59:28.505Z,27.63
2023-01-05T23:01:58.383Z,31.77
2023-01-05T23:04:28.161Z,25.03
2023-01-05T23:07:02.453Z,24.53
2023-01-05T23:09:33.484Z,22.00
2023-01-05T23:12:05.431Z,21.17
2023-01-05T23:14:38.786Z,22.20
2023-01-05T23:17:12.391Z,26.17
2023-01-05T23:19:42.127Z,32.70
2023-01-05T23:22:15.366Z,27.20
2023-01-05T23:24:45.321Z,31.87
2023-01-05T23:27:18.807Z,32.10
2023-01-05T23:29:49.533Z,26.77
2023-01-05T23:32:20.277Z,28.10
2023-01-05T23:34:54.804Z,28.57
2023-01-05T23:37:27.228Z,33.40
2023-01-05T23:39:58.553Z,33.93
2023-01-05T23:42:40.978Z,25.53
2023-01-05T23:45:12.137Z,32.87
2023-01-05T23:47:43.154Z,21.70
2023-01-05T23:50:13.900Z,32.67
2023-01-05T23:52:46.114Z,29.30
2023-01-05T23:55:16.838Z,25.93
2023-01-05T23:57:46.557Z,33.10
